createdAt,value
2022-08-24T00:00:24.784Z,19.82
2022-08-24T00:01:24.751Z,19.70
2022-08-24T00:02:24.839Z,19.84
2022-08-24T00:03:25.255Z,19.71
2022-08-24T00:04:25.723Z,19.71
2022-08-24T00:05:25.539Z,19.63
2022-08-24T00:06:24.698Z,19.71
2022-08-24T00:07:27.551Z,19.71
2022-08-24T00:08:24.676Z,19.67
2022-08-24T00:09:25.083Z,19.66
2022-08-24T00:10:24.656Z,19.66
2022-08-24T00:11:24.720Z,19.67
2022-08-24T00:12:24.637Z,19.66
2022-08-24T00:13:24.642Z,19.59
2022-08-24T00:14:24.607Z,19.62
2022-08-24T00:15:24.601Z,19.59
2022-08-24T00:16:24.667Z,19.67
2022-08-24T00:17:24.573Z,19.58
2022-08-24T00:18:24.590Z,19.66
2022-08-24T00:19:24.551Z,19.58
2022-08-24T00:20:24.547Z,19.56
2022-08-24T00:21:24.557Z,19.58
2022-08-24T00:22:25.044Z,19.56
2022-08-24T00:23:24.506Z,19.58
2022-08-24T00:24:24.496Z,19.63
2022-08-24T00:25:24.483Z,19.52
2022-08-24T00:26:28.831Z,19.49
2022-08-24T00:27:24.467Z,19.47
2022-08-24T00:28:24.457Z,19.49
2022-08-24T00:29:24.436Z,19.39
2022-08-24T00:30:24.439Z,19.45
2022-08-24T00:31:24.504Z,19.41
2022-08-24T00:32:24.407Z,19.47
2022-08-24T00:33:24.394Z,19.52
2022-08-24T00:34:24.383Z,19.44
2022-08-24T00:35:24.378Z,19.40
2022-08-24T00:36:24.407Z,19.48
2022-08-24T00:37:24.363Z,19.39
2022-08-24T00:38:24.357Z,19.40
2022-08-24T00:39:24.611Z,19.40
2022-08-24T00:40:24.403Z,19.33
2022-08-24T00:41:24.458Z,19.34
2022-08-24T00:42:38.313Z,19.36
2022-08-24T00:43:25.054Z,19.33
2022-08-24T00:44:24.270Z,19.36
2022-08-24T00:45:24.548Z,19.39
2022-08-24T00:46:24.257Z,19.45
2022-08-24T00:47:24.239Z,19.48
2022-08-24T00:48:24.232Z,19.45
2022-08-24T00:49:24.216Z,19.51
2022-08-24T00:50:24.206Z,19.40
2022-08-24T00:51:24.218Z,19.34
2022-08-24T00:52:24.181Z,19.45
2022-08-24T00:53:24.170Z,19.40
2022-08-24T00:54:24.294Z,19.40
2022-08-24T00:55:24.150Z,19.36
2022-08-24T00:56:30.288Z,19.31
2022-08-24T00:57:24.131Z,19.36
2022-08-24T00:58:24.173Z,19.37
2022-08-24T00:59:24.122Z,19.40
2022-08-24T01:00:24.094Z,19.34
2022-08-24T01:01:24.192Z,19.29
2022-08-24T01:02:24.113Z,19.30
2022-08-24T01:03:24.057Z,19.31
2022-08-24T01:04:24.048Z,19.19
2022-08-24T01:05:24.032Z,19.21
2022-08-24T01:06:24.047Z,19.26
2022-08-24T01:07:24.020Z,19.26
2022-08-24T01:08:24.000Z,19.29
2022-08-24T01:09:23.994Z,19.31
2022-08-24T01:10:23.982Z,19.21
2022-08-24T01:11:23.988Z,19.21
2022-08-24T01:12:23.977Z,19.21
2022-08-24T01:13:24.271Z,19.19
2022-08-24T01:14:23.935Z,19.15
2022-08-24T01:15:23.923Z,19.21
2022-08-24T01:16:23.980Z,19.12
2022-08-24T01:17:23.929Z,19.09
2022-08-24T01:18:23.884Z,19.14
2022-08-24T01:19:23.875Z,19.22
2022-08-24T01:20:23.862Z,19.18
2022-08-24T01:21:23.877Z,19.21
2022-08-24T01:22:23.841Z,19.24
2022-08-24T01:23:23.830Z,19.26
2022-08-24T01:24:23.817Z,19.22
2022-08-24T01:25:23.810Z,19.22
2022-08-24T01:26:23.795Z,19.15
2022-08-24T01:27:27.752Z,19.15
2022-08-24T01:28:27.448Z,19.24
2022-08-24T01:29:23.973Z,19.21
2022-08-24T01:30:26.491Z,19.24
2022-08-24T01:31:24.825Z,19.18
2022-08-24T01:32:23.729Z,19.21
2022-08-24T01:33:23.710Z,19.21
2022-08-24T01:34:23.730Z,19.30
2022-08-24T01:35:23.690Z,19.19
2022-08-24T01:36:28.227Z,19.26
2022-08-24T01:37:24.675Z,19.21
2022-08-24T01:38:23.681Z,19.16
2022-08-24T01:39:23.671Z,19.26
2022-08-24T01:40:23.703Z,19.22
2022-08-24T01:41:28.255Z,19.21
2022-08-24T01:42:24.620Z,19.24
2022-08-24T01:43:24.568Z,19.19
2022-08-24T01:44:23.625Z,19.27
2022-08-24T01:45:23.578Z,19.26
2022-08-24T01:46:23.604Z,19.34
2022-08-24T01:47:23.778Z,19.33
2022-08-24T01:48:23.544Z,19.49
2022-08-24T01:49:23.556Z,19.58
2022-08-24T01:50:23.527Z,19.54
2022-08-24T01:51:23.511Z,19.67
2022-08-24T01:52:23.520Z,19.82
2022-08-24T01:53:23.563Z,19.92
2022-08-24T01:54:23.492Z,20.10
2022-08-24T01:55:23.463Z,20.25
2022-08-24T01:56:23.458Z,20.24
2022-08-24T01:57:23.466Z,20.22
2022-08-24T01:58:23.441Z,20.31
2022-08-24T01:59:23.437Z,20.29
2022-08-24T02:00:24.079Z,20.31
2022-08-24T02:01:23.464Z,20.44
2022-08-24T02:02:23.435Z,20.41
2022-08-24T02:03:27.665Z,20.39
2022-08-24T02:04:24.367Z,20.58
2022-08-24T02:05:23.352Z,20.50
2022-08-24T02:06:23.350Z,20.50
2022-08-24T02:07:23.327Z,20.56
2022-08-24T02:08:23.349Z,20.48
2022-08-24T02:09:23.321Z,20.62
2022-08-24T02:10:23.299Z,20.59
2022-08-24T02:11:23.292Z,20.74
2022-08-24T02:12:23.275Z,20.67
2022-08-24T02:13:23.300Z,20.70
2022-08-24T02:14:23.253Z,20.60
2022-08-24T02:15:23.250Z,20.60
2022-08-24T02:16:23.280Z,20.55
2022-08-24T02:17:23.253Z,20.44
2022-08-24T02:18:23.205Z,20.51
2022-08-24T02:19:23.202Z,20.55
2022-08-24T02:20:23.187Z,20.55
2022-08-24T02:21:23.175Z,20.58
2022-08-24T02:22:23.221Z,20.50
2022-08-24T02:23:23.418Z,20.41
2022-08-24T02:24:23.145Z,20.39
2022-08-24T02:25:23.135Z,20.36
2022-08-24T02:26:23.141Z,20.32
2022-08-24T02:27:23.115Z,20.26
2022-08-24T02:28:23.100Z,20.34
2022-08-24T02:29:23.088Z,20.24
2022-08-24T02:30:23.094Z,20.18
2022-08-24T02:31:23.168Z,20.07
2022-08-24T02:32:23.052Z,20.07
2022-08-24T02:33:23.040Z,19.96
2022-08-24T02:34:23.049Z,20.00
2022-08-24T02:35:23.020Z,19.86
2022-08-24T02:36:26.306Z,19.84
2022-08-24T02:37:23.002Z,19.84
2022-08-24T02:38:23.921Z,19.84
2022-08-24T02:39:23.040Z,19.74
2022-08-24T02:40:23.319Z,19.70
2022-08-24T02:41:22.993Z,19.70
2022-08-24T02:42:22.949Z,19.69
2022-08-24T02:43:22.949Z,19.70
2022-08-24T02:44:22.963Z,19.64
2022-08-24T02:45:22.910Z,19.59
2022-08-24T02:46:22.980Z,19.48
2022-08-24T02:47:22.882Z,19.59
2022-08-24T02:48:23.876Z,19.52
2022-08-24T02:49:22.883Z,19.52
2022-08-24T02:50:22.852Z,19.49
2022-08-24T02:51:22.901Z,19.45
2022-08-24T02:52:22.824Z,19.48
2022-08-24T02:53:22.827Z,19.37
2022-08-24T02:54:22.822Z,19.48
2022-08-24T02:55:23.761Z,19.36
2022-08-24T02:56:22.783Z,19.37
2022-08-24T02:57:22.776Z,19.33
2022-08-24T02:58:24.891Z,19.26
2022-08-24T02:59:22.751Z,19.30
2022-08-24T03:00:22.743Z,19.18
2022-08-24T03:01:24.079Z,19.29
2022-08-24T03:02:23.753Z,19.26
2022-08-24T03:03:22.853Z,19.16
2022-08-24T03:04:22.727Z,19.15
2022-08-24T03:05:22.690Z,19.21
2022-08-24T03:06:22.683Z,19.24
2022-08-24T03:07:22.683Z,19.04
2022-08-24T03:08:22.753Z,19.15
2022-08-24T03:09:23.405Z,19.15
2022-08-24T03:10:22.625Z,19.09
2022-08-24T03:11:25.744Z,19.12
2022-08-24T03:12:44.946Z,19.02
2022-08-24T03:13:22.591Z,18.99
2022-08-24T03:14:22.595Z,19.07
2022-08-24T03:15:22.578Z,19.04
2022-08-24T03:16:22.564Z,19.08
2022-08-24T03:17:27.486Z,19.08
2022-08-24T03:18:24.709Z,18.99
2022-08-24T03:19:22.522Z,18.96
2022-08-24T03:20:22.518Z,18.96
2022-08-24T03:21:22.525Z,18.93
2022-08-24T03:22:22.486Z,18.86
2022-08-24T03:23:22.477Z,18.81
2022-08-24T03:24:22.464Z,18.92
2022-08-24T03:25:22.483Z,18.80
2022-08-24T03:26:22.464Z,18.83
2022-08-24T03:27:22.477Z,18.78
2022-08-24T03:28:24.100Z,18.93
2022-08-24T03:29:23.916Z,18.92
2022-08-24T03:30:22.395Z,18.78
2022-08-24T03:31:22.387Z,18.81
2022-08-24T03:32:22.411Z,18.86
2022-08-24T03:33:22.364Z,18.81
2022-08-24T03:34:22.393Z,18.83
2022-08-24T03:36:40.284Z,18.81
2022-08-24T03:37:40.271Z,18.70
2022-08-24T03:38:40.252Z,18.78
2022-08-24T03:39:40.274Z,18.68
2022-08-24T03:40:40.271Z,18.78
2022-08-24T03:41:40.223Z,18.68
2022-08-24T03:42:40.216Z,18.68
2022-08-24T03:43:40.199Z,18.70
2022-08-24T03:44:40.204Z,18.70
2022-08-24T03:45:40.242Z,18.70
2022-08-24T03:46:40.164Z,18.73
2022-08-24T03:47:40.155Z,18.63
2022-08-24T03:48:40.150Z,18.71
2022-08-24T03:49:40.223Z,18.68
2022-08-24T03:50:40.119Z,18.62
2022-08-24T03:51:40.106Z,18.65
2022-08-24T03:52:40.103Z,18.68
2022-08-24T03:53:40.087Z,18.58
2022-08-24T03:54:40.656Z,18.66
2022-08-24T03:55:40.064Z,18.65
2022-08-24T03:56:40.060Z,18.66
2022-08-24T03:57:40.042Z,18.60
2022-08-24T03:58:42.809Z,18.62
2022-08-24T03:59:44.008Z,18.56
2022-08-24T04:00:41.006Z,18.60
2022-08-24T04:01:40.058Z,18.55
2022-08-24T04:02:40.028Z,18.59
2022-08-24T04:03:39.994Z,18.59
2022-08-24T04:04:40.034Z,18.58
2022-08-24T04:05:39.957Z,18.58
2022-08-24T04:06:40.014Z,18.53
2022-08-24T04:07:39.938Z,18.58
2022-08-24T04:08:39.935Z,18.58
2022-08-24T04:09:39.911Z,18.58
2022-08-24T04:10:39.894Z,18.63
2022-08-24T04:11:41.504Z,18.62
2022-08-24T04:12:39.899Z,18.56
2022-08-24T04:13:39.936Z,18.62
2022-08-24T04:14:39.844Z,18.58
2022-08-24T04:15:39.839Z,18.55
2022-08-24T04:16:39.894Z,18.59
2022-08-24T04:17:40.042Z,18.62
2022-08-24T04:18:39.802Z,18.59
2022-08-24T04:19:39.792Z,18.58
2022-08-24T04:20:39.793Z,18.58
2022-08-24T04:21:39.779Z,18.59
2022-08-24T04:22:39.793Z,18.58
2022-08-24T04:23:46.820Z,18.60
2022-08-24T04:24:40.736Z,18.62
2022-08-24T04:25:39.796Z,18.65
2022-08-24T04:26:45.802Z,18.68
2022-08-24T04:27:40.725Z,18.66
2022-08-24T04:28:39.701Z,18.63
2022-08-24T04:29:39.686Z,18.63
2022-08-24T04:30:39.691Z,18.70
2022-08-24T04:31:39.764Z,18.62
2022-08-24T04:32:39.652Z,18.66
2022-08-24T04:33:39.636Z,18.68
2022-08-24T04:34:39.622Z,18.66
2022-08-24T04:35:39.642Z,18.66
2022-08-24T04:36:39.860Z,18.75
2022-08-24T04:37:39.602Z,18.65
2022-08-24T04:38:39.585Z,18.74
2022-08-24T04:39:39.592Z,18.78
2022-08-24T04:40:39.715Z,18.75
2022-08-24T04:41:39.550Z,18.75
2022-08-24T04:42:39.536Z,18.80
2022-08-24T04:43:39.526Z,18.75
2022-08-24T04:44:42.369Z,18.80
2022-08-24T04:45:39.562Z,18.83
2022-08-24T04:46:39.495Z,18.84
2022-08-24T04:47:39.487Z,18.81
2022-08-24T04:48:39.465Z,18.90
2022-08-24T04:49:39.459Z,18.84
2022-08-24T04:50:39.692Z,18.96
2022-08-24T04:51:40.014Z,18.86
2022-08-24T04:52:39.418Z,18.89
2022-08-24T04:53:40.299Z,18.96
2022-08-24T04:54:39.401Z,18.96
2022-08-24T04:55:39.384Z,18.98
2022-08-24T04:56:39.377Z,18.99
2022-08-24T04:57:40.019Z,19.00
2022-08-24T04:58:39.392Z,18.99
2022-08-24T04:59:39.345Z,19.02
2022-08-24T05:00:39.362Z,19.07
2022-08-24T05:01:39.322Z,19.11
2022-08-24T05:02:44.563Z,19.07
2022-08-24T05:03:40.419Z,19.24
2022-08-24T05:04:39.278Z,19.18
2022-08-24T05:05:39.279Z,19.22
2022-08-24T05:06:39.253Z,19.24
2022-08-24T05:07:39.266Z,19.24
2022-08-24T05:08:39.256Z,19.33
2022-08-24T05:09:39.224Z,19.34
2022-08-24T05:10:39.212Z,19.36
2022-08-24T05:11:39.231Z,19.44
2022-08-24T05:12:39.187Z,19.39
2022-08-24T05:13:39.204Z,19.36
2022-08-24T05:14:40.299Z,19.39
2022-08-24T05:15:39.169Z,19.45
2022-08-24T05:16:39.282Z,19.51
2022-08-24T05:17:40.156Z,19.51
2022-08-24T05:18:39.121Z,19.52
2022-08-24T05:19:39.112Z,19.59
2022-08-24T05:20:39.099Z,19.59
2022-08-24T05:21:40.141Z,19.59
2022-08-24T05:22:39.099Z,19.62
2022-08-24T05:23:39.079Z,19.67
2022-08-24T05:24:39.059Z,19.73
2022-08-24T05:25:39.041Z,19.70
2022-08-24T05:26:39.079Z,19.76
2022-08-24T05:27:39.374Z,19.69
2022-08-24T05:28:39.012Z,19.85
2022-08-24T05:29:39.068Z,19.86
2022-08-24T05:30:42.514Z,19.89
2022-08-24T05:31:39.075Z,19.92
2022-08-24T05:32:38.967Z,19.96
2022-08-24T05:33:39.094Z,19.99
2022-08-24T05:34:38.947Z,20.07
2022-08-24T05:35:38.933Z,20.22
2022-08-24T05:36:38.973Z,20.18
2022-08-24T05:37:38.912Z,20.14
2022-08-24T05:38:38.898Z,20.24
2022-08-24T05:39:38.897Z,20.36
2022-08-24T05:40:38.884Z,20.34
2022-08-24T05:41:38.866Z,20.41
2022-08-24T05:42:39.882Z,20.48
2022-08-24T05:43:38.847Z,20.51
2022-08-24T05:44:39.064Z,20.51
2022-08-24T05:45:38.841Z,20.62
2022-08-24T05:46:38.858Z,20.67
2022-08-24T05:47:38.807Z,20.75
2022-08-24T05:48:39.725Z,21.03
2022-08-24T05:49:41.559Z,21.07
2022-08-24T05:50:38.840Z,21.25
2022-08-24T05:51:38.757Z,21.24
2022-08-24T05:52:38.743Z,21.33
2022-08-24T05:53:38.729Z,21.45
2022-08-24T05:54:38.721Z,21.52
2022-08-24T05:55:38.733Z,21.50
2022-08-24T05:56:38.694Z,21.48
2022-08-24T05:57:38.686Z,21.57
2022-08-24T05:58:38.698Z,21.72
2022-08-24T05:59:38.672Z,21.70
2022-08-24T06:00:38.657Z,21.83
2022-08-24T06:01:44.544Z,21.91
2022-08-24T06:02:39.784Z,21.93
2022-08-24T06:03:38.657Z,21.85
2022-08-24T06:04:38.637Z,22.02
2022-08-24T06:05:38.595Z,22.10
2022-08-24T06:06:38.580Z,22.14
2022-08-24T06:07:38.719Z,22.23
2022-08-24T06:08:41.385Z,22.51
2022-08-24T06:09:38.565Z,22.63
2022-08-24T06:10:38.587Z,22.80
2022-08-24T06:11:38.541Z,22.80
2022-08-24T06:12:38.537Z,22.84
2022-08-24T06:13:38.512Z,22.85
2022-08-24T06:14:38.493Z,22.96
2022-08-24T06:15:38.501Z,22.90
2022-08-24T06:16:38.562Z,22.70
2022-08-24T06:17:38.686Z,22.65
2022-08-24T06:18:38.812Z,22.66
2022-08-24T06:19:38.443Z,22.62
2022-08-24T06:20:38.437Z,22.53
2022-08-24T06:21:38.421Z,22.47
2022-08-24T06:22:38.703Z,22.54
2022-08-24T06:23:38.399Z,22.60
2022-08-24T06:24:38.996Z,22.68
2022-08-24T06:25:38.382Z,22.66
2022-08-24T06:26:38.389Z,22.69
2022-08-24T06:27:38.357Z,22.72
2022-08-24T06:28:38.360Z,22.80
2022-08-24T06:29:38.338Z,22.91
2022-08-24T06:30:38.318Z,22.84
2022-08-24T06:31:39.777Z,22.93
2022-08-24T06:32:38.300Z,22.99
2022-08-24T06:33:38.284Z,23.09
2022-08-24T06:34:38.271Z,23.18
2022-08-24T06:35:38.288Z,23.34
2022-08-24T06:36:40.030Z,23.36
2022-08-24T06:37:38.246Z,23.34
2022-08-24T06:38:38.231Z,23.41
2022-08-24T06:39:38.225Z,23.37
2022-08-24T06:40:44.874Z,23.25
2022-08-24T06:41:38.382Z,23.23
2022-08-24T06:42:38.188Z,23.25
2022-08-24T06:43:38.186Z,23.34
2022-08-24T06:44:38.164Z,23.31
2022-08-24T06:45:38.183Z,23.44
2022-08-24T06:46:39.238Z,23.44
2022-08-24T06:47:38.132Z,23.50
2022-08-24T06:48:38.121Z,23.50
2022-08-24T06:49:38.139Z,23.54
2022-08-24T06:50:38.100Z,23.41
2022-08-24T06:51:38.100Z,23.46
2022-08-24T06:52:38.071Z,23.25
2022-08-24T06:53:38.065Z,23.24
2022-08-24T06:54:38.585Z,23.25
2022-08-24T06:55:38.071Z,23.17
2022-08-24T06:56:38.045Z,23.24
2022-08-24T06:57:38.022Z,23.32
2022-08-24T06:58:38.017Z,23.36
2022-08-24T06:59:38.023Z,23.43
2022-08-24T07:00:38.231Z,23.65
2022-08-24T07:01:38.075Z,23.59
2022-08-24T07:02:38.133Z,23.65
2022-08-24T07:03:37.984Z,23.66
2022-08-24T07:04:37.939Z,23.74
2022-08-24T07:05:37.933Z,23.95
2022-08-24T07:06:37.927Z,23.92
2022-08-24T07:07:37.908Z,23.86
2022-08-24T07:08:37.917Z,23.87
2022-08-24T07:09:37.888Z,23.88
2022-08-24T07:10:37.878Z,23.81
2022-08-24T07:11:37.901Z,23.74
2022-08-24T07:12:37.876Z,23.76
2022-08-24T07:13:37.840Z,23.76
2022-08-24T07:14:37.827Z,23.71
2022-08-24T07:15:37.887Z,23.68
2022-08-24T07:16:37.803Z,23.69
2022-08-24T07:17:38.243Z,23.73
2022-08-24T07:18:37.785Z,23.61
2022-08-24T07:19:37.773Z,23.65
2022-08-24T07:20:37.762Z,23.96
2022-08-24T07:21:37.749Z,24.01
2022-08-24T07:22:37.755Z,24.21
2022-08-24T07:23:42.073Z,24.33
2022-08-24T07:24:38.718Z,24.33
2022-08-24T07:25:37.723Z,24.57
2022-08-24T07:26:37.713Z,24.57
2022-08-24T07:27:37.688Z,24.54
2022-08-24T07:28:37.671Z,24.51
2022-08-24T07:29:50.367Z,24.51
2022-08-24T07:30:38.747Z,24.69
2022-08-24T07:31:37.736Z,24.69
2022-08-24T07:32:38.096Z,24.77
2022-08-24T07:33:37.627Z,24.88
2022-08-24T07:34:37.637Z,25.17
2022-08-24T07:35:37.593Z,25.36
2022-08-24T07:36:41.024Z,25.54
2022-08-24T07:37:41.383Z,25.78
2022-08-24T07:38:37.565Z,25.90
2022-08-24T07:39:37.554Z,25.99
2022-08-24T07:41:01.779Z,26.18
2022-08-24T07:41:51.262Z,26.33
2022-08-24T07:42:38.527Z,26.80
2022-08-24T07:43:38.171Z,27.65
2022-08-24T07:44:38.495Z,28.19
2022-08-24T07:45:39.162Z,28.62
2022-08-24T07:46:37.583Z,29.54
2022-08-24T07:47:41.052Z,31.15
2022-08-24T07:48:38.448Z,32.73
2022-08-24T07:49:39.624Z,34.11
2022-08-24T07:50:37.437Z,34.97
2022-08-24T07:51:38.133Z,34.86
2022-08-24T07:52:38.584Z,34.45
2022-08-24T07:53:52.607Z,34.10
2022-08-24T07:54:38.406Z,33.50
2022-08-24T07:55:45.888Z,32.96
2022-08-24T07:56:38.363Z,32.77
2022-08-24T07:57:37.363Z,33.00
2022-08-24T07:58:37.385Z,34.08
2022-08-24T07:59:37.339Z,35.00
2022-08-24T08:00:37.331Z,35.68
2022-08-24T08:01:37.385Z,35.97
2022-08-24T08:02:37.333Z,35.58
2022-08-24T08:03:37.310Z,35.26
2022-08-24T08:04:38.083Z,34.83
2022-08-24T08:05:37.269Z,34.38
2022-08-24T08:06:37.260Z,34.51
2022-08-24T08:07:37.250Z,34.71
2022-08-24T08:08:38.038Z,34.17
2022-08-24T08:09:37.226Z,33.98
2022-08-24T08:10:37.217Z,33.83
2022-08-24T08:11:37.214Z,34.73
2022-08-24T08:12:37.211Z,34.67
2022-08-24T08:13:37.277Z,34.14
2022-08-24T08:14:37.173Z,33.94
2022-08-24T08:15:37.268Z,33.42
2022-08-24T08:16:37.162Z,32.83
2022-08-24T08:17:42.490Z,32.26
2022-08-24T08:18:37.134Z,32.14
2022-08-24T08:19:37.134Z,31.96
2022-08-24T08:20:37.118Z,31.74
2022-08-24T08:21:37.173Z,31.44
2022-08-24T08:22:37.093Z,31.36
2022-08-24T08:23:37.105Z,31.02
2022-08-24T08:24:37.087Z,31.27
2022-08-24T08:25:37.101Z,32.48
2022-08-24T08:26:37.073Z,33.98
2022-08-24T08:27:37.125Z,35.04
2022-08-24T08:28:37.670Z,35.51
2022-08-24T08:29:37.009Z,35.58
2022-08-24T08:30:37.062Z,35.58
2022-08-24T08:31:38.546Z,35.51
2022-08-24T08:32:36.983Z,36.20
2022-08-24T08:33:36.977Z,35.90
2022-08-24T08:34:36.962Z,36.16
2022-08-24T08:35:36.950Z,36.68
2022-08-24T08:36:36.949Z,37.14
2022-08-24T08:38:37.595Z,36.65
2022-08-24T08:39:36.909Z,37.64
2022-08-24T08:40:36.900Z,36.96
2022-08-24T08:41:36.886Z,35.45
2022-08-24T08:42:36.923Z,34.47
2022-08-24T08:43:36.864Z,33.79
2022-08-24T08:44:36.858Z,32.38
2022-08-24T08:45:36.844Z,31.56
2022-08-24T08:46:40.701Z,31.39
2022-08-24T08:47:36.820Z,30.65
2022-08-24T08:48:36.815Z,30.00
2022-08-24T08:49:36.830Z,29.41
2022-08-24T08:50:36.795Z,29.10
2022-08-24T08:51:36.779Z,28.88
2022-08-24T08:52:39.647Z,28.64
2022-08-24T08:53:36.804Z,28.47
2022-08-24T08:54:36.748Z,28.45
2022-08-24T08:55:36.736Z,28.49
2022-08-24T08:56:36.729Z,28.48
2022-08-24T08:57:36.719Z,28.32
2022-08-24T08:58:36.732Z,28.00
2022-08-24T08:59:36.702Z,28.23
2022-08-24T09:00:36.706Z,28.63
2022-08-24T09:01:46.484Z,30.12
2022-08-24T09:02:37.666Z,30.84
2022-08-24T09:03:36.655Z,31.34
2022-08-24T09:04:36.736Z,31.36
2022-08-24T09:05:36.639Z,31.18
2022-08-24T09:06:36.617Z,30.62
2022-08-24T09:07:36.613Z,30.19
2022-08-24T09:08:36.633Z,29.72
2022-08-24T09:09:36.587Z,29.20
2022-08-24T09:10:36.582Z,28.69
2022-08-24T09:11:36.569Z,28.17
2022-08-24T09:12:43.479Z,27.47
2022-08-24T09:13:36.545Z,27.17
2022-08-24T09:14:36.553Z,27.00
2022-08-24T09:15:36.532Z,26.93
2022-08-24T09:16:36.633Z,26.85
2022-08-24T09:17:36.510Z,26.74
2022-08-24T09:18:36.490Z,26.71
2022-08-24T09:19:36.480Z,26.74
2022-08-24T09:20:36.471Z,26.74
2022-08-24T09:21:36.457Z,26.74
2022-08-24T09:22:36.483Z,26.71
2022-08-24T09:23:36.442Z,26.68
2022-08-24T09:24:36.435Z,26.59
2022-08-24T09:25:36.412Z,26.47
2022-08-24T09:26:36.399Z,26.47
2022-08-24T09:27:36.861Z,26.40
2022-08-24T09:28:36.378Z,26.28
2022-08-24T09:29:36.548Z,26.40
2022-08-24T09:30:36.413Z,26.37
2022-08-24T09:31:38.981Z,26.16
2022-08-24T09:32:36.348Z,25.81
2022-08-24T09:33:36.469Z,25.29
2022-08-24T09:34:36.322Z,25.10
2022-08-24T09:35:36.318Z,25.16
2022-08-24T09:36:36.326Z,25.18
2022-08-24T09:37:36.788Z,25.21
2022-08-24T09:38:36.284Z,25.31
2022-08-24T09:39:36.262Z,25.41
2022-08-24T09:40:36.250Z,25.53
2022-08-24T09:41:36.277Z,25.54
2022-08-24T09:42:36.232Z,25.69
2022-08-24T09:43:36.215Z,25.75
2022-08-24T09:44:36.205Z,25.95
2022-08-24T09:45:36.298Z,25.84
2022-08-24T09:46:36.183Z,25.66
2022-08-24T09:47:36.176Z,25.85
2022-08-24T09:48:36.173Z,26.06
2022-08-24T09:49:36.161Z,26.06
2022-08-24T09:50:36.554Z,26.33
2022-08-24T09:51:36.167Z,26.28
2022-08-24T09:52:36.131Z,26.44
2022-08-24T09:53:36.103Z,26.48
2022-08-24T09:54:36.115Z,26.60
2022-08-24T09:55:36.087Z,26.62
2022-08-24T09:56:36.079Z,26.58
2022-08-24T09:57:59.569Z,26.16
2022-08-24T09:58:37.071Z,26.22
2022-08-24T09:59:36.583Z,26.29
2022-08-24T10:00:36.031Z,26.29
2022-08-24T10:01:36.115Z,26.36
2022-08-24T10:02:36.088Z,26.53
2022-08-24T10:03:38.463Z,26.74
2022-08-24T10:04:36.177Z,26.89
2022-08-24T10:05:36.870Z,27.17
2022-08-24T10:06:36.166Z,27.44
2022-08-24T10:08:56.699Z,27.22
2022-08-24T10:09:56.669Z,27.08
2022-08-24T10:10:56.651Z,27.12
2022-08-24T10:11:56.640Z,27.29
2022-08-24T10:12:56.740Z,27.37
2022-08-24T10:13:56.624Z,27.39
2022-08-24T10:14:56.626Z,27.40
2022-08-24T10:15:56.602Z,27.33
2022-08-24T10:16:56.637Z,27.29
2022-08-24T10:17:56.599Z,27.33
2022-08-24T10:18:56.564Z,27.52
2022-08-24T10:19:56.554Z,27.64
2022-08-24T10:20:56.534Z,27.77
2022-08-24T10:21:56.551Z,28.59
2022-08-24T10:22:56.516Z,29.73
2022-08-24T10:23:56.505Z,30.55
2022-08-24T10:24:56.499Z,31.84
2022-08-24T10:25:56.486Z,33.46
2022-08-24T10:26:56.491Z,34.64
2022-08-24T10:27:56.465Z,35.14
2022-08-24T10:28:56.454Z,35.58
2022-08-24T10:29:56.444Z,36.47
2022-08-24T10:30:59.042Z,37.42
2022-08-24T10:31:56.509Z,38.26
2022-08-24T10:32:56.421Z,39.00
2022-08-24T10:33:57.189Z,38.58
2022-08-24T10:34:56.409Z,38.08
2022-08-24T10:35:56.385Z,37.93
2022-08-24T10:36:56.386Z,38.11
2022-08-24T10:37:56.367Z,37.80
2022-08-24T10:38:56.359Z,36.92
2022-08-24T10:40:01.398Z,36.49
2022-08-24T10:40:59.218Z,36.83
2022-08-24T10:41:56.325Z,36.79
2022-08-24T10:42:56.312Z,35.90
2022-08-24T10:43:56.299Z,36.17
2022-08-24T10:44:56.316Z,36.37
2022-08-24T10:45:56.318Z,36.31
2022-08-24T10:46:58.775Z,35.89
2022-08-24T10:47:56.264Z,35.88
2022-08-24T10:48:56.283Z,36.45
2022-08-24T10:49:56.255Z,37.49
2022-08-24T10:50:56.329Z,38.39
2022-08-24T10:51:56.221Z,38.77
2022-08-24T10:52:56.237Z,39.00
2022-08-24T10:53:56.224Z,39.81
2022-08-24T10:54:56.194Z,40.35
2022-08-24T10:55:56.191Z,40.77
2022-08-24T10:56:56.207Z,40.34
2022-08-24T10:57:56.187Z,39.68
2022-08-24T10:58:56.159Z,39.96
2022-08-24T10:59:56.191Z,40.28
2022-08-24T11:00:56.189Z,40.08
2022-08-24T11:01:56.154Z,40.04
2022-08-24T11:02:56.120Z,39.37
2022-08-24T11:03:56.875Z,38.71
2022-08-24T11:04:56.098Z,37.80
2022-08-24T11:05:56.090Z,37.82
2022-08-24T11:06:56.077Z,38.76
2022-08-24T11:07:56.201Z,39.21
2022-08-24T11:08:56.074Z,39.90
2022-08-24T11:09:56.052Z,39.99
2022-08-24T11:10:56.040Z,38.62
2022-08-24T11:11:56.219Z,37.11
2022-08-24T11:12:59.084Z,36.04
2022-08-24T11:13:56.010Z,35.36
2022-08-24T11:14:56.001Z,34.24
2022-08-24T11:15:56.038Z,32.86
2022-08-24T11:16:58.068Z,31.94
2022-08-24T11:17:56.002Z,31.54
2022-08-24T11:18:55.972Z,31.40
2022-08-24T11:19:55.955Z,31.21
2022-08-24T11:20:55.948Z,31.21
2022-08-24T11:21:55.932Z,31.15
2022-08-24T11:22:55.943Z,31.21
2022-08-24T11:23:55.914Z,31.22
2022-08-24T11:24:55.977Z,31.27
2022-08-24T11:25:55.892Z,31.21
2022-08-24T11:26:55.900Z,31.24
2022-08-24T11:27:55.875Z,31.65
2022-08-24T11:28:55.916Z,32.85
2022-08-24T11:29:55.849Z,33.90
2022-08-24T11:30:55.869Z,34.66
2022-08-24T11:31:55.924Z,34.93
2022-08-24T11:32:55.817Z,35.27
2022-08-24T11:33:55.814Z,35.29
2022-08-24T11:34:55.804Z,34.62
2022-08-24T11:35:55.811Z,34.58
2022-08-24T11:36:55.777Z,34.29
2022-08-24T11:37:55.770Z,34.55
2022-08-24T11:38:55.757Z,34.92
2022-08-24T11:39:55.790Z,35.33
2022-08-24T11:40:55.758Z,35.78
2022-08-24T11:41:55.735Z,36.39
2022-08-24T11:42:55.718Z,36.02
2022-08-24T11:43:55.715Z,35.67
2022-08-24T11:44:55.701Z,35.63
2022-08-24T11:45:55.713Z,36.00
2022-08-24T11:46:55.779Z,36.76
2022-08-24T11:47:55.738Z,37.23
2022-08-24T11:48:55.663Z,37.42
2022-08-24T11:49:55.683Z,37.53
2022-08-24T11:50:55.642Z,37.94
2022-08-24T11:51:55.639Z,38.11
2022-08-24T11:52:55.629Z,38.08
2022-08-24T11:53:55.620Z,37.67
2022-08-24T11:54:55.619Z,37.39
2022-08-24T11:55:57.215Z,36.81
2022-08-24T11:56:55.593Z,36.30
2022-08-24T11:57:55.579Z,35.71
2022-08-24T11:59:01.463Z,35.33
2022-08-24T11:59:55.560Z,34.74
2022-08-24T12:00:55.593Z,34.42
2022-08-24T12:01:55.709Z,34.02
2022-08-24T12:02:56.034Z,33.74
2022-08-24T12:03:55.522Z,33.55
2022-08-24T12:04:55.509Z,33.32
2022-08-24T12:05:55.502Z,33.08
2022-08-24T12:06:55.959Z,32.83
2022-08-24T12:07:55.499Z,32.37
2022-08-24T12:08:55.471Z,31.36
2022-08-24T12:09:55.464Z,30.88
2022-08-24T12:10:55.455Z,30.66
2022-08-24T12:11:55.464Z,30.57
2022-08-24T12:12:55.432Z,30.81
2022-08-24T12:13:55.423Z,31.15
2022-08-24T12:14:56.539Z,31.61
2022-08-24T12:15:55.465Z,31.96
2022-08-24T12:16:55.411Z,32.12
2022-08-24T12:17:55.380Z,32.07
2022-08-24T12:18:55.367Z,32.09
2022-08-24T12:19:55.651Z,32.14
2022-08-24T12:20:55.350Z,31.99
2022-08-24T12:21:55.367Z,32.04
2022-08-24T12:22:55.344Z,32.22
2022-08-24T12:23:55.722Z,32.03
2022-08-24T12:24:55.310Z,31.81
2022-08-24T12:25:55.302Z,32.01
2022-08-24T12:26:55.316Z,32.04
2022-08-24T12:27:55.292Z,32.11
2022-08-24T12:28:55.276Z,32.21
2022-08-24T12:29:55.262Z,32.14
2022-08-24T12:30:55.255Z,32.36
2022-08-24T12:31:55.266Z,32.45
2022-08-24T12:32:55.256Z,32.01
2022-08-24T12:33:55.245Z,31.97
2022-08-24T12:34:58.525Z,31.81
2022-08-24T12:35:55.207Z,31.87
2022-08-24T12:36:55.399Z,31.70
2022-08-24T12:37:55.188Z,31.85
2022-08-24T12:38:55.180Z,32.23
2022-08-24T12:39:55.245Z,32.65
2022-08-24T12:40:55.372Z,32.92
2022-08-24T12:41:55.155Z,33.47
2022-08-24T12:42:57.208Z,33.12
2022-08-24T12:43:55.135Z,32.86
2022-08-24T12:44:55.126Z,32.43
2022-08-24T12:45:55.132Z,32.21
2022-08-24T12:46:55.156Z,32.03
2022-08-24T12:47:55.090Z,31.65
2022-08-24T12:48:55.305Z,31.43
2022-08-24T12:49:55.077Z,31.18
2022-08-24T12:50:55.093Z,30.88
2022-08-24T12:51:56.404Z,30.19
2022-08-24T12:52:55.053Z,30.03
2022-08-24T12:53:55.039Z,30.02
2022-08-24T12:54:55.032Z,29.82
2022-08-24T12:55:56.111Z,29.73